Time;durP1;ratioP1;P1;durP2;ratioP2;P2;SDS_P1;SDS_P2;PMS_P1;PMS_P2;Temp;Humidity;BMP_temperature;BMP_pressure;BME280_temperature;BME280_humidity;BME280_pressure;Samples;Min_cycle;Max_cycle;Signal;HPM_P1;HPM_P2
2023/12/10 00:00:07;;;;;;;9.40;3.13;;;12.40;73.70;;;;;;5030768;28;20269;-53
2023/12/10 00:02:33;;;;;;;13.77;3.03;;;12.50;73.10;;;;;;5049080;28;20276;-53
2023/12/10 00:04:58;;;;;;;11.03;2.17;;;12.60;73.50;;;;;;5042901;28;21025;-52
2023/12/10 00:07:24;;;;;;;8.10;1.90;;;12.50;72.60;;;;;;5046966;28;20177;-52
2023/12/10 00:09:50;;;;;;;11.87;2.50;;;12.60;71.80;;;;;;5044746;28;20212;-51
2023/12/10 00:12:16;;;;;;;8.87;2.00;;;12.60;72.00;;;;;;5048729;28;20189;-51
2023/12/10 00:14:42;;;;;;;8.77;2.60;;;12.60;72.30;;;;;;5046711;28;20475;-51
2023/12/10 00:17:07;;;;;;;6.60;2.53;;;12.70;71.20;;;;;;5046134;28;20846;-51
2023/12/10 00:19:33;;;;;;;6.73;2.20;;;12.80;71.20;;;;;;5047690;28;20208;-51
2023/12/10 00:21:59;;;;;;;10.60;2.80;;;13.00;70.20;;;;;;5047294;28;20189;-53
2023/12/10 00:24:25;;;;;;;14.17;2.37;;;13.10;69.50;;;;;;5045414;28;20462;-54
2023/12/10 00:26:51;;;;;;;8.30;2.77;;;13.20;69.10;;;;;;5046752;28;20710;-52
2023/12/10 00:29:16;;;;;;;17.13;3.10;;;13.30;68.50;;;;;;5047643;28;20232;-52
2023/12/10 00:31:43;;;;;;;10.63;2.30;;;13.20;67.80;;;;;;5048769;28;20253;-52
2023/12/10 00:34:09;;;;;;;12.37;3.00;;;13.20;67.60;;;;;;5041139;28;20177;-51
2023/12/10 00:36:35;;;;;;;11.60;3.10;;;13.20;67.40;;;;;;5045389;28;21192;-53
2023/12/10 00:39:00;;;;;;;13.90;3.60;;;13.30;66.90;;;;;;5040134;28;20472;-53
2023/12/10 00:41:26;;;;;;;16.40;4.50;;;13.40;66.90;;;;;;5046220;28;20436;-53
2023/12/10 00:43:51;;;;;;;8.43;2.67;;;13.20;65.70;;;;;;5046141;28;20191;-53
2023/12/10 00:46:17;;;;;;;12.40;2.70;;;13.30;66.40;;;;;;5046147;28;20189;-54
2023/12/10 00:48:43;;;;;;;11.43;3.33;;;13.50;66.20;;;;;;5046006;28;20215;-50
2023/12/10 00:51:18;;;;;;;10.73;2.63;;;13.40;66.10;;;;;;5041194;28;20272;-54
2023/12/10 00:53:44;;;;;;;11.63;3.60;;;13.20;65.20;;;;;;5046719;28;20461;-53
2023/12/10 00:56:09;;;;;;;19.87;3.90;;;13.30;65.30;;;;;;5048577;28;20470;-54
2023/12/10 00:58:35;;;;;;;12.50;3.80;;;13.30;64.80;;;;;;5047146;28;20184;-51
2023/12/10 01:01:00;;;;;;;10.17;3.00;;;13.20;64.90;;;;;;5047833;28;20192;-54
2023/12/10 01:03:26;;;;;;;10.53;3.20;;;13.10;65.20;;;;;;5047589;28;20604;-52
2023/12/10 01:05:52;;;;;;;12.40;5.20;;;12.90;65.60;;;;;;5045709;28;20181;-53
2023/12/10 01:08:17;;;;;;;15.37;3.50;;;13.10;65.70;;;;;;5046833;28;20715;-54
2023/12/10 01:10:43;;;;;;;13.70;3.70;;;13.20;65.60;;;;;;5046769;28;20196;-52
2023/12/10 01:13:08;;;;;;;14.60;3.70;;;13.30;64.30;;;;;;5047011;28;20227;-51
2023/12/10 01:15:34;;;;;;;12.80;3.30;;;13.30;63.90;;;;;;5048394;28;20735;-51
2023/12/10 01:18:00;;;;;;;14.00;3.33;;;13.00;63.00;;;;;;5039784;28;20631;-54
2023/12/10 01:20:30;;;;;;;16.87;4.40;;;13.20;64.40;;;;;;5043120;28;20213;-52
2023/12/10 01:22:56;;;;;;;15.10;3.33;;;13.30;64.30;;;;;;5039224;28;20455;-53
2023/12/10 01:25:22;;;;;;;15.13;3.63;;;13.20;63.80;;;;;;5043590;28;20431;-52
2023/12/10 01:27:48;;;;;;;19.03;4.50;;;13.30;63.50;;;;;;5036583;28;20185;-52
2023/12/10 01:30:14;;;;;;;15.40;4.00;;;13.20;63.80;;;;;;5045796;28;20450;-52
2023/12/10 01:32:40;;;;;;;14.73;3.97;;;13.00;64.00;;;;;;5044200;28;20185;-52
2023/12/10 01:35:07;;;;;;;15.90;3.60;;;12.90;64.20;;;;;;5040628;28;20474;-52
2023/12/10 01:37:33;;;;;;;22.90;4.17;;;13.00;64.50;;;;;;5040118;28;20919;-52
2023/12/10 01:39:59;;;;;;;19.07;3.53;;;13.20;63.80;;;;;;5046522;28;20579;-51
2023/12/10 01:42:25;;;;;;;16.73;4.27;;;13.00;62.60;;;;;;5041475;28;20452;-51
2023/12/10 01:44:50;;;;;;;11.93;3.37;;;13.00;63.40;;;;;;5045126;28;20215;-54
2023/12/10 01:47:18;;;;;;;15.20;3.80;;;13.00;63.10;;;;;;5043183;28;20280;-52
2023/12/10 01:49:45;;;;;;;18.50;4.63;;;13.00;63.70;;;;;;5046323;28;20266;-55
2023/12/10 01:52:11;;;;;;;13.30;2.97;;;13.10;63.10;;;;;;5046971;28;20821;-53
2023/12/10 01:54:36;;;;;;;20.40;4.80;;;13.00;62.50;;;;;;5045235;28;20541;-51
2023/12/10 01:57:03;;;;;;;18.43;4.80;;;12.80;62.90;;;;;;5044303;28;20180;-52
2023/12/10 01:59:29;;;;;;;20.63;3.70;;;12.80;63.20;;;;;;5041796;28;20210;-55
2023/12/10 02:01:55;;;;;;;23.30;4.67;;;12.90;63.40;;;;;;5044886;28;20451;-52
2023/12/10 02:04:21;;;;;;;20.70;4.40;;;13.20;62.60;;;;;;5045175;28;20457;-52
2023/12/10 02:06:47;;;;;;;22.23;4.20;;;13.20;61.30;;;;;;5042540;28;20188;-53
2023/12/10 02:09:16;;;;;;;18.47;4.70;;;13.20;61.70;;;;;;5043741;28;20295;-52
2023/12/10 02:11:42;;;;;;;14.83;3.83;;;13.20;61.40;;;;;;5045654;28;20486;-51
2023/12/10 02:14:08;;;;;;;17.87;4.20;;;13.20;61.10;;;;;;5043809;28;21165;-55
2023/12/10 02:16:33;;;;;;;14.20;3.77;;;13.20;61.50;;;;;;5043671;28;20335;-54
2023/12/10 02:18:59;;;;;;;10.87;4.20;;;13.20;61.70;;;;;;5046915;28;20192;-51
2023/12/10 02:21:26;;;;;;;25.40;3.60;;;13.20;61.40;;;;;;5041688;28;20264;-54
2023/12/10 02:24:02;;;;;;;22.20;3.87;;;12.90;60.80;;;;;;5044881;28;20447;-53
2023/12/10 02:26:28;;;;;;;18.60;4.73;;;13.00;62.00;;;;;;5043341;28;20917;-53
2023/12/10 02:28:54;;;;;;;13.97;3.17;;;13.10;61.30;;;;;;5045469;28;20471;-57
2023/12/10 02:31:20;;;;;;;12.10;3.47;;;13.20;61.60;;;;;;5048604;28;20598;-50
2023/12/10 02:33:48;;;;;;;20.67;3.60;;;13.30;63.10;;;;;;5045129;28;20430;-54
2023/12/10 02:36:14;;;;;;;22.53;3.83;;;13.40;62.40;;;;;;5047030;28;20244;-53
2023/12/10 02:38:39;;;;;;;14.93;3.93;;;13.50;62.70;;;;;;5046219;28;20490;-51
2023/12/10 02:41:05;;;;;;;14.83;3.70;;;13.70;62.20;;;;;;5049147;28;20250;-53
2023/12/10 02:43:31;;;;;;;16.47;3.97;;;13.80;61.90;;;;;;5049161;28;20185;-53
2023/12/10 02:45:57;;;;;;;12.33;3.70;;;13.80;61.90;;;;;;5048801;28;20619;-53
2023/12/10 02:48:23;;;;;;;23.37;3.80;;;13.60;61.20;;;;;;5048494;28;20439;-52
2023/12/10 02:50:49;;;;;;;15.13;2.80;;;13.20;63.30;;;;;;5047611;28;20181;-52
2023/12/10 02:53:15;;;;;;;15.17;4.30;;;12.70;63.60;;;;;;5049583;28;20273;-54
2023/12/10 02:55:41;;;;;;;7.17;2.47;;;12.60;65.10;;;;;;5044348;28;20481;-53
2023/12/10 02:58:07;;;;;;;5.67;2.03;;;12.50;65.70;;;;;;5048757;28;20977;-53
2023/12/10 03:00:32;;;;;;;14.73;3.07;;;12.30;67.90;;;;;;5048615;28;20228;-50
2023/12/10 03:02:58;;;;;;;11.13;2.83;;;12.30;68.40;;;;;;5047933;28;20191;-53
2023/12/10 03:05:25;;;;;;;17.30;2.33;;;12.40;68.70;;;;;;5045638;28;20189;-52
2023/12/10 03:07:50;;;;;;;11.50;2.63;;;12.70;68.50;;;;;;5045705;28;20177;-55
2023/12/10 03:10:16;;;;;;;5.03;1.97;;;12.80;67.70;;;;;;5047341;28;20508;-51
2023/12/10 03:12:41;;;;;;;10.77;2.73;;;12.90;67.00;;;;;;5048773;28;20188;-51
2023/12/10 03:15:07;;;;;;;9.87;3.77;;;13.10;66.60;;;;;;5045867;28;20646;-53
2023/12/10 03:17:33;;;;;;;13.23;2.50;;;13.30;66.40;;;;;;5045070;28;20196;-52
2023/12/10 03:19:58;;;;;;;6.50;2.00;;;13.40;65.60;;;;;;5046044;28;20222;-51
2023/12/10 03:22:24;;;;;;;4.10;1.63;;;13.10;63.70;;;;;;5042805;28;20176;-51
2023/12/10 03:24:49;;;;;;;5.37;1.97;;;12.80;63.60;;;;;;5041948;28;20559;-51
2023/12/10 03:27:15;;;;;;;5.17;1.57;;;12.90;64.60;;;;;;5048258;28;20246;-54
2023/12/10 03:29:41;;;;;;;4.43;1.77;;;12.80;63.40;;;;;;5045699;28;20208;-56
2023/12/10 03:32:06;;;;;;;5.10;2.53;;;12.60;63.40;;;;;;5048909;28;20996;-52
2023/12/10 03:34:32;;;;;;;9.87;1.97;;;12.20;64.20;;;;;;5044968;28;20275;-50
2023/12/10 03:36:57;;;;;;;5.50;2.00;;;12.20;65.00;;;;;;5045871;28;20660;-55
2023/12/10 03:39:23;;;;;;;8.63;2.17;;;12.00;64.70;;;;;;5039928;28;20212;-51
2023/12/10 03:41:49;;;;;;;12.40;2.07;;;12.00;64.90;;;;;;5044777;28;20839;-50
2023/12/10 03:44:14;;;;;;;6.07;1.73;;;12.00;65.30;;;;;;5042030;28;20538;-53
2023/12/10 03:46:40;;;;;;;6.43;1.73;;;12.00;64.00;;;;;;5046550;28;20246;-51
2023/12/10 03:49:06;;;;;;;7.60;2.53;;;11.90;64.70;;;;;;5045527;28;20700;-54
2023/12/10 03:51:31;;;;;;;6.90;2.20;;;11.80;64.50;;;;;;5047229;28;20204;-52
2023/12/10 03:53:57;;;;;;;7.90;1.73;;;12.10;65.30;;;;;;5047055;28;20283;-50
2023/12/10 03:56:23;;;;;;;8.77;2.13;;;12.10;64.60;;;;;;5048277;28;20220;-52
2023/12/10 03:58:48;;;;;;;8.87;2.50;;;12.40;64.20;;;;;;5042587;28;20291;-53
2023/12/10 04:01:14;;;;;;;8.30;2.43;;;12.10;63.90;;;;;;5048166;28;20254;-55
2023/12/10 04:03:40;;;;;;;7.23;1.80;;;12.00;64.30;;;;;;5047424;28;20676;-50
2023/12/10 04:06:06;;;;;;;16.43;2.40;;;12.00;64.30;;;;;;5046691;28;20176;-54
2023/12/10 04:08:31;;;;;;;6.47;2.10;;;11.90;63.80;;;;;;5047658;28;20176;-50
2023/12/10 04:10:57;;;;;;;7.93;3.17;;;11.90;63.50;;;;;;5044894;28;20187;-51
2023/12/10 04:13:22;;;;;;;15.40;3.17;;;11.90;63.40;;;;;;5048973;28;20250;-51
2023/12/10 04:15:48;;;;;;;8.93;3.00;;;11.90;63.10;;;;;;5047823;28;20228;-52
2023/12/10 04:18:16;;;;;;;10.57;2.60;;;11.80;63.00;;;;;;5046018;28;20715;-53
2023/12/10 04:20:43;;;;;;;11.30;3.00;;;11.70;62.50;;;;;;5046474;28;20779;-54
2023/12/10 04:23:08;;;;;;;5.97;1.90;;;11.60;63.20;;;;;;5042125;28;20442;-52
2023/12/10 04:25:34;;;;;;;9.40;2.67;;;11.70;62.90;;;;;;5047111;28;21280;-54
2023/12/10 04:27:59;;;;;;;10.90;2.77;;;11.80;62.70;;;;;;5044025;28;20192;-51
2023/12/10 04:30:26;;;;;;;14.90;2.43;;;12.00;62.60;;;;;;5040001;28;20224;-50
2023/12/10 04:32:52;;;;;;;7.50;3.20;;;11.90;61.70;;;;;;5047324;28;20185;-53
2023/12/10 04:35:18;;;;;;;10.00;2.13;;;12.00;61.70;;;;;;5045692;28;20485;-52
2023/12/10 04:37:44;;;;;;;9.73;2.17;;;11.80;61.50;;;;;;5046023;28;20449;-54
2023/12/10 04:40:10;;;;;;;9.10;1.97;;;11.90;61.80;;;;;;5046548;28;20538;-50
2023/12/10 04:42:37;;;;;;;12.37;3.33;;;12.10;61.40;;;;;;5046808;28;20198;-53
2023/12/10 04:45:03;;;;;;;12.77;2.40;;;12.10;61.00;;;;;;5045859;28;20435;-55
2023/12/10 04:47:28;;;;;;;9.70;3.13;;;12.20;61.30;;;;;;5045599;28;20445;-52
2023/12/10 04:49:54;;;;;;;14.33;3.13;;;12.10;61.00;;;;;;5046916;28;20551;-50
2023/12/10 04:52:20;;;;;;;7.73;2.50;;;12.20;60.60;;;;;;5044127;28;20189;-51
2023/12/10 04:54:45;;;;;;;9.17;2.20;;;12.20;60.00;;;;;;5038441;28;20448;-52
2023/12/10 04:57:11;;;;;;;6.80;2.13;;;12.20;60.20;;;;;;5047502;28;20216;-50
2023/12/10 04:59:37;;;;;;;12.43;2.30;;;12.20;60.10;;;;;;5046613;28;20226;-56
2023/12/10 05:02:02;;;;;;;8.93;2.37;;;12.00;59.60;;;;;;5045874;28;20283;-56
2023/12/10 05:04:28;;;;;;;8.97;2.70;;;12.00;59.80;;;;;;5045214;28;20191;-53
2023/12/10 05:06:53;;;;;;;16.47;3.43;;;12.00;59.30;;;;;;5046913;28;20184;-51
2023/12/10 05:09:19;;;;;;;11.67;2.43;;;11.90;59.80;;;;;;5044342;28;20205;-53
2023/12/10 05:11:45;;;;;;;7.80;2.40;;;11.70;59.70;;;;;;5044146;28;21020;-56
2023/12/10 05:14:10;;;;;;;12.50;2.77;;;12.00;60.40;;;;;;5046214;28;20339;-53
2023/12/10 05:16:36;;;;;;;5.80;2.30;;;12.00;59.80;;;;;;5044600;28;20224;-51
2023/12/10 05:19:01;;;;;;;6.83;2.57;;;12.10;59.40;;;;;;5044582;28;20215;-52
2023/12/10 05:21:27;;;;;;;13.03;3.80;;;12.20;59.50;;;;;;5048087;28;20671;-53
2023/12/10 05:23:52;;;;;;;10.83;3.37;;;12.30;59.20;;;;;;5044094;28;20219;-51
2023/12/10 05:26:18;;;;;;;13.00;3.27;;;12.50;58.80;;;;;;5044152;28;20675;-52
2023/12/10 05:28:44;;;;;;;11.47;2.17;;;12.40;58.40;;;;;;5044547;28;20222;-54
2023/12/10 05:31:10;;;;;;;10.50;2.50;;;12.40;58.60;;;;;;5043314;28;20172;-51
2023/12/10 05:33:35;;;;;;;9.63;2.80;;;12.30;58.60;;;;;;5041656;28;20280;-54
2023/12/10 05:36:02;;;;;;;9.23;2.40;;;12.30;58.40;;;;;;5042853;28;20569;-54
2023/12/10 05:38:27;;;;;;;11.53;2.43;;;12.10;58.30;;;;;;5046428;28;20181;-52
2023/12/10 05:40:53;;;;;;;8.70;2.47;;;12.20;58.60;;;;;;5042377;28;20482;-53
2023/12/10 05:43:18;;;;;;;8.20;2.60;;;12.20;58.10;;;;;;5041598;28;20222;-52
2023/12/10 05:45:44;;;;;;;9.30;1.63;;;12.20;57.90;;;;;;5039662;28;20185;-54
2023/12/10 05:48:10;;;;;;;8.13;1.90;;;12.30;58.00;;;;;;5046437;28;20181;-55
2023/12/10 05:50:36;;;;;;;10.87;2.50;;;12.50;57.80;;;;;;5040934;28;20318;-55
2023/12/10 05:53:03;;;;;;;8.07;2.50;;;12.50;57.30;;;;;;5045604;28;20276;-53
2023/12/10 05:55:29;;;;;;;10.53;2.37;;;12.50;57.10;;;;;;5044173;28;20475;-52
2023/12/10 05:57:55;;;;;;;11.90;2.40;;;12.30;57.30;;;;;;5042362;28;20516;-54
2023/12/10 06:00:21;;;;;;;7.90;2.80;;;12.30;57.60;;;;;;5045936;28;20474;-53
2023/12/10 06:02:47;;;;;;;9.90;3.23;;;12.40;57.60;;;;;;5045358;28;20185;-51
2023/12/10 06:05:12;;;;;;;11.27;3.20;;;12.50;56.90;;;;;;5044471;28;20172;-51
2023/12/10 06:07:38;;;;;;;5.43;2.67;;;12.30;56.40;;;;;;5047333;28;20746;-51
2023/12/10 06:10:04;;;;;;;7.10;2.10;;;12.20;57.30;;;;;;5048320;28;20211;-53
2023/12/10 06:12:30;;;;;;;8.53;2.03;;;12.10;57.20;;;;;;5050417;28;20191;-52
2023/12/10 06:14:56;;;;;;;10.23;2.53;;;12.20;57.10;;;;;;5047229;28;20901;-52
2023/12/10 06:17:22;;;;;;;7.90;2.20;;;12.10;56.60;;;;;;5049374;28;20662;-54
2023/12/10 06:19:47;;;;;;;10.70;2.53;;;12.00;56.40;;;;;;5048949;28;20459;-54
2023/12/10 06:22:13;;;;;;;12.83;2.93;;;12.10;57.30;;;;;;5045707;28;20279;-52
2023/12/10 06:24:39;;;;;;;12.50;3.03;;;12.20;56.50;;;;;;5050338;28;20189;-51
2023/12/10 06:27:04;;;;;;;7.23;1.97;;;12.10;56.20;;;;;;5049298;28;20247;-51
2023/12/10 06:29:30;;;;;;;6.43;2.37;;;12.20;56.40;;;;;;5047337;28;20216;-54
2023/12/10 06:31:56;;;;;;;6.77;2.13;;;12.10;55.90;;;;;;5049241;28;20200;-51
2023/12/10 06:34:22;;;;;;;10.53;3.20;;;12.40;56.10;;;;;;5042634;28;20272;-52
2023/12/10 06:36:47;;;;;;;6.93;2.23;;;12.50;55.30;;;;;;5046118;28;20517;-52
2023/12/10 06:39:13;;;;;;;7.87;2.03;;;12.50;55.80;;;;;;5046582;28;21049;-50
2023/12/10 06:41:39;;;;;;;9.30;2.67;;;12.50;55.70;;;;;;5045157;28;20246;-52
2023/12/10 06:44:05;;;;;;;8.50;2.70;;;12.60;55.40;;;;;;5047598;28;20273;-51
2023/12/10 06:46:30;;;;;;;12.93;2.73;;;12.50;55.50;;;;;;5046667;28;20912;-53
2023/12/10 06:48:56;;;;;;;11.27;2.83;;;12.50;55.50;;;;;;5048936;28;20592;-52
2023/12/10 06:51:22;;;;;;;8.87;2.40;;;12.60;55.80;;;;;;5044543;28;20184;-53
2023/12/10 06:53:47;;;;;;;7.03;1.80;;;12.60;55.00;;;;;;5046010;28;20188;-52
2023/12/10 06:56:13;;;;;;;6.93;2.37;;;12.60;54.80;;;;;;5047508;28;20219;-52
2023/12/10 06:58:39;;;;;;;11.30;3.47;;;12.50;55.10;;;;;;5045126;28;20231;-52
2023/12/10 07:01:05;;;;;;;4.77;2.10;;;12.30;55.30;;;;;;5045703;28;20219;-55
2023/12/10 07:03:30;;;;;;;7.63;2.10;;;12.20;55.80;;;;;;5046838;28;20243;-53
2023/12/10 07:05:56;;;;;;;9.53;2.50;;;12.30;55.80;;;;;;5045770;28;20446;-51
2023/12/10 07:08:21;;;;;;;9.37;2.83;;;12.50;55.60;;;;;;5046369;28;20878;-50
2023/12/10 07:10:47;;;;;;;10.03;2.13;;;12.50;55.50;;;;;;5049396;28;20554;-52
2023/12/10 07:13:13;;;;;;;7.73;2.17;;;12.50;55.30;;;;;;5047751;28;20173;-53
2023/12/10 07:15:39;;;;;;;5.80;1.77;;;12.60;55.60;;;;;;5040130;28;20248;-53
2023/12/10 07:18:04;;;;;;;10.23;2.90;;;12.60;55.20;;;;;;5043554;28;20571;-54
2023/12/10 07:20:30;;;;;;;8.17;2.50;;;12.50;55.00;;;;;;5048133;28;20200;-53
2023/12/10 07:22:56;;;;;;;8.07;2.30;;;12.40;56.10;;;;;;5048876;28;20185;-56
2023/12/10 07:25:21;;;;;;;10.77;2.10;;;12.60;55.80;;;;;;5044715;28;20181;-53
2023/12/10 07:27:47;;;;;;;9.07;2.20;;;12.60;55.50;;;;;;5047622;28;20196;-50
2023/12/10 07:30:13;;;;;;;12.40;2.60;;;12.60;55.10;;;;;;5042421;28;20281;-52
2023/12/10 07:32:38;;;;;;;6.53;2.30;;;12.50;55.10;;;;;;5043088;28;20432;-52
2023/12/10 07:35:04;;;;;;;9.40;2.13;;;12.50;55.00;;;;;;5046353;28;20671;-52
2023/12/10 07:37:30;;;;;;;14.57;2.90;;;12.20;54.90;;;;;;5042309;28;20563;-50
2023/12/10 07:39:56;;;;;;;5.80;2.00;;;12.10;55.30;;;;;;5042616;28;22270;-55
2023/12/10 07:42:22;;;;;;;8.53;2.10;;;12.20;55.60;;;;;;5047738;28;20230;-52
2023/12/10 07:44:47;;;;;;;9.10;2.10;;;12.10;55.70;;;;;;5048607;28;20966;-50
2023/12/10 07:47:13;;;;;;;12.60;2.00;;;11.80;56.00;;;;;;5045942;28;20177;-56
2023/12/10 07:49:38;;;;;;;12.00;2.50;;;11.70;56.60;;;;;;5048476;28;20219;-54
2023/12/10 07:52:04;;;;;;;12.13;2.20;;;11.80;57.10;;;;;;5045566;28;20945;-53
2023/12/10 07:54:30;;;;;;;6.87;3.00;;;12.10;57.20;;;;;;5043902;28;20192;-51
2023/12/10 07:56:55;;;;;;;4.10;1.90;;;12.10;56.90;;;;;;5042594;28;20726;-51
2023/12/10 07:59:21;;;;;;;10.27;2.80;;;11.90;57.60;;;;;;5044340;28;20215;-55
2023/12/10 08:01:46;;;;;;;9.93;2.60;;;12.00;57.70;;;;;;5042367;28;20680;-52
2023/12/10 08:04:12;;;;;;;8.00;2.23;;;12.20;57.60;;;;;;5047622;28;20181;-52
2023/12/10 08:06:37;;;;;;;9.20;2.17;;;12.30;57.30;;;;;;5042648;28;20239;-52
2023/12/10 08:09:06;;;;;;;9.17;2.20;;;12.50;57.20;;;;;;5039727;28;20247;-55
2023/12/10 08:11:32;;;;;;;4.73;1.90;;;12.20;56.80;;;;;;5042770;28;20192;-54
2023/12/10 08:13:57;;;;;;;7.40;2.23;;;12.40;57.00;;;;;;5045466;28;20458;-54
2023/12/10 08:16:23;;;;;;;9.33;2.87;;;12.40;56.80;;;;;;5043819;28;20213;-53
2023/12/10 08:18:50;;;;;;;16.63;3.17;;;12.50;56.80;;;;;;5042379;28;20338;-52
2023/12/10 08:21:16;;;;;;;7.90;2.63;;;12.50;56.40;;;;;;5041455;28;20637;-53
2023/12/10 08:23:41;;;;;;;8.03;2.43;;;12.30;56.40;;;;;;5045383;28;20427;-56
2023/12/10 08:26:07;;;;;;;9.40;2.83;;;12.30;56.50;;;;;;5045855;28;20492;-54
2023/12/10 08:28:34;;;;;;;7.13;2.03;;;12.40;56.40;;;;;;5044220;28;20673;-55
2023/12/10 08:30:59;;;;;;;7.93;2.13;;;12.40;56.40;;;;;;5043498;28;20431;-52
2023/12/10 08:33:25;;;;;;;6.27;2.20;;;12.20;56.40;;;;;;5046280;28;20928;-57
2023/12/10 08:35:50;;;;;;;9.27;2.53;;;12.30;56.60;;;;;;5046599;28;20236;-51
2023/12/10 08:38:16;;;;;;;9.70;2.47;;;12.40;56.80;;;;;;5041819;28;20235;-54
2023/12/10 08:40:42;;;;;;;14.10;2.93;;;12.50;57.00;;;;;;5043595;28;20204;-51
2023/12/10 08:43:07;;;;;;;6.77;2.10;;;12.60;57.10;;;;;;5044323;28;20796;-52
2023/12/10 08:45:33;;;;;;;16.30;3.37;;;12.60;56.90;;;;;;5046304;28;20196;-51
2023/12/10 08:47:59;;;;;;;7.50;2.30;;;12.70;57.10;;;;;;5047908;28;20276;-54
2023/12/10 08:50:24;;;;;;;6.37;2.00;;;12.80;57.40;;;;;;5046868;28;20204;-50
2023/12/10 08:52:50;;;;;;;10.30;3.57;;;12.80;57.10;;;;;;5039361;28;20252;-50
2023/12/10 08:55:15;;;;;;;7.57;2.10;;;12.90;57.10;;;;;;5049025;28;20220;-54
2023/12/10 08:57:41;;;;;;;11.23;2.33;;;12.90;57.20;;;;;;5046051;28;20272;-55
2023/12/10 09:00:07;;;;;;;9.73;2.70;;;13.00;57.30;;;;;;5045744;28;20261;-52
2023/12/10 09:02:33;;;;;;;8.10;2.53;;;13.10;57.20;;;;;;5043228;28;20207;-51
2023/12/10 09:04:59;;;;;;;9.10;3.20;;;13.10;56.80;;;;;;5048206;28;20538;-52
2023/12/10 09:07:25;;;;;;;9.80;2.30;;;13.10;57.00;;;;;;5048010;28;20506;-53
2023/12/10 09:09:51;;;;;;;7.00;2.30;;;13.20;57.40;;;;;;5042179;28;20277;-51
2023/12/10 09:12:17;;;;;;;7.63;2.80;;;13.20;57.40;;;;;;5047125;28;20423;-53
2023/12/10 09:14:42;;;;;;;11.87;3.53;;;13.40;57.20;;;;;;5038138;28;20272;-52
2023/12/10 09:17:08;;;;;;;13.90;2.87;;;13.50;56.90;;;;;;5043980;28;20212;-52
2023/12/10 09:19:33;;;;;;;8.70;2.80;;;13.60;56.70;;;;;;5045832;28;20209;-53
2023/12/10 09:21:59;;;;;;;10.13;2.73;;;13.60;56.10;;;;;;5046322;28;20671;-50
2023/12/10 09:24:26;;;;;;;9.20;3.17;;;13.60;56.10;;;;;;5048144;28;20181;-51
2023/12/10 09:26:51;;;;;;;6.10;2.07;;;13.70;56.00;;;;;;5044034;28;20188;-51
2023/12/10 09:29:17;;;;;;;12.20;3.10;;;13.80;55.70;;;;;;5038657;28;20604;-51
2023/12/10 09:31:43;;;;;;;7.67;2.27;;;13.90;55.50;;;;;;5042432;28;20184;-55
2023/12/10 09:34:09;;;;;;;5.83;1.90;;;13.90;55.60;;;;;;5044316;28;20242;-51
2023/12/10 09:36:35;;;;;;;6.83;2.57;;;13.90;56.50;;;;;;5047352;28;20303;-55
2023/12/10 09:39:01;;;;;;;5.23;2.73;;;13.80;55.80;;;;;;5042073;28;20562;-54
2023/12/10 09:41:27;;;;;;;9.00;2.50;;;13.90;55.80;;;;;;5047255;28;20438;-51
2023/12/10 09:43:52;;;;;;;11.03;3.17;;;13.80;55.40;;;;;;5040550;28;20415;-55
2023/12/10 09:46:18;;;;;;;5.23;2.50;;;13.60;55.70;;;;;;5047354;28;20280;-55
2023/12/10 09:48:45;;;;;;;7.03;2.47;;;13.50;56.00;;;;;;5042920;28;20208;-55
2023/12/10 09:51:11;;;;;;;12.03;2.33;;;13.50;55.90;;;;;;5045689;28;20635;-54
2023/12/10 09:53:36;;;;;;;7.87;2.13;;;13.70;55.90;;;;;;5044227;28;20430;-55
2023/12/10 09:56:02;;;;;;;6.73;2.00;;;13.70;55.80;;;;;;5044712;28;22054;-52
2023/12/10 09:58:28;;;;;;;6.50;1.60;;;13.60;55.30;;;;;;5039347;28;20677;-51
2023/12/10 10:00:53;;;;;;;8.50;2.30;;;13.50;56.40;;;;;;5044866;28;20235;-51
2023/12/10 10:03:20;;;;;;;5.70;1.70;;;13.50;56.00;;;;;;5046592;28;20188;-54
2023/12/10 10:05:46;;;;;;;7.23;2.00;;;13.50;55.70;;;;;;5043838;28;20662;-54
2023/12/10 10:08:12;;;;;;;10.30;1.80;;;13.40;55.70;;;;;;5038067;28;20505;-52
2023/12/10 10:10:37;;;;;;;7.37;2.17;;;13.30;56.60;;;;;;5044791;28;20266;-52
2023/12/10 10:13:05;;;;;;;8.70;2.57;;;13.10;56.80;;;;;;5046515;28;20274;-53
2023/12/10 10:15:31;;;;;;;11.60;2.90;;;12.90;56.80;;;;;;5041485;28;20598;-53
2023/12/10 10:17:58;;;;;;;4.67;1.67;;;12.70;58.00;;;;;;5041525;28;20429;-55
2023/12/10 10:20:24;;;;;;;5.53;2.13;;;12.70;58.40;;;;;;5039947;28;20258;-51
2023/12/10 10:22:51;;;;;;;6.30;1.97;;;13.00;58.60;;;;;;5044454;28;20447;-53
2023/12/10 10:25:18;;;;;;;5.80;2.70;;;13.00;58.30;;;;;;5047175;28;20880;-55
2023/12/10 10:27:44;;;;;;;8.20;1.70;;;12.90;57.70;;;;;;5042229;28;20538;-54
2023/12/10 10:30:10;;;;;;;5.90;2.23;;;12.70;57.80;;;;;;5039070;28;20530;-54
2023/12/10 10:32:37;;;;;;;5.90;1.90;;;12.70;58.00;;;;;;5043217;28;20192;-55
2023/12/10 10:35:04;;;;;;;9.73;2.77;;;12.80;58.30;;;;;;5044355;28;20942;-52
2023/12/10 10:37:29;;;;;;;7.83;2.10;;;12.90;58.00;;;;;;5041818;28;20901;-52
2023/12/10 10:39:56;;;;;;;8.20;1.70;;;12.70;58.60;;;;;;5043174;28;20530;-57
2023/12/10 10:42:22;;;;;;;6.80;1.93;;;12.50;58.10;;;;;;5045211;28;20648;-52
2023/12/10 10:44:47;;;;;;;5.63;1.73;;;12.60;58.70;;;;;;5043022;28;20422;-54
2023/12/10 10:47:15;;;;;;;9.50;1.97;;;12.40;58.60;;;;;;5038000;28;20641;-54
2023/12/10 10:50:01;;;;;;;7.27;2.53;;;12.40;58.70;;;;;;5046850;28;20699;-53
2023/12/10 10:52:29;;;;;;;5.37;1.80;;;12.60;58.90;;;;;;5042147;28;20926;-57
2023/12/10 10:54:56;;;;;;;7.30;1.87;;;12.60;58.80;;;;;;5043454;28;20818;-50
2023/12/10 10:57:35;;;;;;;7.43;2.30;;;12.80;58.60;;;;;;5050427;28;20891;-50
2023/12/10 11:00:21;;;;;;;7.60;2.17;;;13.00;58.10;;;;;;5042983;28;20463;-52
2023/12/10 11:02:49;;;;;;;9.13;2.50;;;13.00;57.80;;;;;;5035725;28;20537;-51
2023/12/10 11:05:29;;;;;;;5.50;1.53;;;13.00;57.90;;;;;;5049543;28;20482;-55
2023/12/10 11:07:55;;;;;;;9.03;2.83;;;12.70;57.60;;;;;;5040128;28;20416;-51
2023/12/10 11:10:21;;;;;;;9.03;2.63;;;12.60;58.30;;;;;;5044558;28;20470;-52
2023/12/10 11:12:49;;;;;;;3.70;1.50;;;12.70;58.50;;;;;;5047323;28;20249;-53
2023/12/10 11:15:17;;;;;;;6.80;2.67;;;12.70;58.30;;;;;;5049241;28;20475;-53
2023/12/10 11:17:56;;;;;;;2.87;1.77;;;12.60;58.00;;;;;;5045776;28;20420;-55
2023/12/10 11:20:49;;;;;;;6.23;2.03;;;12.60;58.40;;;;;;5036244;28;20453;-52
2023/12/10 11:23:16;;;;;;;6.80;1.87;;;12.70;58.60;;;;;;5039476;28;20534;-52
2023/12/10 11:25:43;;;;;;;9.50;2.27;;;13.00;58.70;;;;;;5046556;28;20860;-50
2023/12/10 11:28:11;;;;;;;4.00;2.00;;;12.80;58.00;;;;;;5041030;28;20450;-51
2023/12/10 11:30:37;;;;;;;8.70;2.13;;;12.80;58.50;;;;;;5046212;28;20806;-53
2023/12/10 11:33:06;;;;;;;4.70;2.27;;;12.90;58.70;;;;;;5049361;28;20446;-51
2023/12/10 11:35:32;;;;;;;4.77;1.90;;;12.80;58.60;;;;;;5043122;28;20522;-53
2023/12/10 11:37:58;;;;;;;8.33;2.83;;;12.80;58.80;;;;;;5047911;28;20447;-54
2023/12/10 11:40:24;;;;;;;5.23;2.00;;;12.80;58.60;;;;;;5040522;28;20747;-54
2023/12/10 11:42:49;;;;;;;9.67;2.40;;;12.80;58.80;;;;;;5050292;28;20184;-50
2023/12/10 11:45:15;;;;;;;8.10;2.23;;;12.60;58.50;;;;;;5044854;28;20430;-55
2023/12/10 11:47:43;;;;;;;7.50;2.30;;;12.50;58.70;;;;;;5046828;28;20688;-51
2023/12/10 11:50:12;;;;;;;10.93;2.07;;;12.60;59.10;;;;;;5042266;28;20477;-55
2023/12/10 11:52:39;;;;;;;5.70;2.00;;;12.80;59.20;;;;;;5049832;28;20973;-50
2023/12/10 11:55:07;;;;;;;3.73;1.53;;;12.60;58.90;;;;;;5041254;28;21214;-51
2023/12/10 11:57:33;;;;;;;9.87;2.47;;;12.50;58.80;;;;;;5049986;28;20411;-53
2023/12/10 12:00:01;;;;;;;9.50;2.33;;;12.50;58.70;;;;;;5046950;28;20466;-54
2023/12/10 12:02:27;;;;;;;8.33;2.70;;;12.40;59.10;;;;;;5047484;28;21043;-52
2023/12/10 12:04:52;;;;;;;5.30;1.80;;;12.40;59.50;;;;;;5045327;28;20420;-52
2023/12/10 12:07:28;;;;;;;8.93;1.87;;;12.50;59.60;;;;;;5042361;28;20202;-54
2023/12/10 12:09:55;;;;;;;7.37;1.77;;;12.30;59.10;;;;;;5041952;28;20675;-55
2023/12/10 12:12:24;;;;;;;5.47;1.80;;;12.40;59.50;;;;;;5048910;28;20450;-51
2023/12/10 12:14:51;;;;;;;10.53;2.20;;;12.30;60.10;;;;;;5042976;28;20463;-53
2023/12/10 12:17:19;;;;;;;10.43;2.50;;;12.30;60.00;;;;;;5047486;28;20481;-54
2023/12/10 12:19:45;;;;;;;8.93;2.40;;;12.40;59.90;;;;;;5041384;28;20443;-54
2023/12/10 12:22:11;;;;;;;7.53;1.97;;;12.40;59.70;;;;;;5046289;28;20423;-52
2023/12/10 12:24:39;;;;;;;7.97;1.93;;;12.40;59.80;;;;;;5048792;28;20426;-52
2023/12/10 12:27:08;;;;;;;10.50;2.57;;;12.60;60.50;;;;;;5043256;28;20201;-52
2023/12/10 12:29:34;;;;;;;7.73;2.77;;;12.70;59.40;;;;;;5046829;28;20530;-51
2023/12/10 12:32:02;;;;;;;4.93;1.90;;;12.90;59.40;;;;;;5042305;28;21141;-52
2023/12/10 12:34:28;;;;;;;5.13;2.40;;;13.00;59.10;;;;;;5042138;28;20526;-52
2023/12/10 12:36:53;;;;;;;12.97;4.23;;;13.20;59.00;;;;;;5048357;28;21089;-51